sensor_id;sensor_type;location;lat;lon;timestamp;temperature;humidity
25914;DHT22;13718;50.922;5.346;2023-06-24T00:02:04;20.70;99.90
25914;DHT22;13718;50.922;5.346;2023-06-24T00:04:30;20.70;99.90
25914;DHT22;13718;50.922;5.346;2023-06-24T00:06:55;20.70;99.90
25914;DHT22;13718;50.922;5.346;2023-06-24T00:09:25;20.70;99.90
25914;DHT22;13718;50.922;5.346;2023-06-24T00:11:53;20.70;99.90
25914;DHT22;13718;50.922;5.346;2023-06-24T00:14:19;20.70;99.90
25914;DHT22;13718;50.922;5.346;2023-06-24T00:16:46;20.70;99.90
25914;DHT22;13718;50.922;5.346;2023-06-24T00:19:14;20.70;99.90
25914;DHT22;13718;50.922;5.346;2023-06-24T00:21:40;20.60;99.90
25914;DHT22;13718;50.922;5.346;2023-06-24T00:24:06;20.50;99.90
25914;DHT22;13718;50.922;5.346;2023-06-24T00:26:31;20.50;99.90
25914;DHT22;13718;50.922;5.346;2023-06-24T00:28:58;20.40;99.90
25914;DHT22;13718;50.922;5.346;2023-06-24T00:31:24;20.40;99.90
25914;DHT22;13718;50.922;5.346;2023-06-24T00:33:49;20.30;99.90
25914;DHT22;13718;50.922;5.346;2023-06-24T00:36:17;20.30;99.90
25914;DHT22;13718;50.922;5.346;2023-06-24T00:38:42;20.20;99.90
25914;DHT22;13718;50.922;5.346;2023-06-24T00:41:09;20.30;99.90
25914;DHT22;13718;50.922;5.346;2023-06-24T00:43:35;20.30;99.90
25914;DHT22;13718;50.922;5.346;2023-06-24T00:46:00;20.20;99.90
25914;DHT22;13718;50.922;5.346;2023-06-24T00:48:26;20.10;99.90
25914;DHT22;13718;50.922;5.346;2023-06-24T00:50:52;20.00;99.90
25914;DHT22;13718;50.922;5.346;2023-06-24T00:53:18;20.00;99.90
25914;DHT22;13718;50.922;5.346;2023-06-24T00:55:45;19.90;99.90
25914;DHT22;13718;50.922;5.346;2023-06-24T00:58:11;19.90;99.90
25914;DHT22;13718;50.922;5.346;2023-06-24T01:00:44;19.90;99.90
25914;DHT22;13718;50.922;5.346;2023-06-24T01:03:11;19.90;99.90
25914;DHT22;13718;50.922;5.346;2023-06-24T01:05:42;19.80;99.90
25914;DHT22;13718;50.922;5.346;2023-06-24T01:08:07;19.80;99.90
25914;DHT22;13718;50.922;5.346;2023-06-24T01:10:33;19.80;99.90
25914;DHT22;13718;50.922;5.346;2023-06-24T01:12:58;19.70;99.90
25914;DHT22;13718;50.922;5.346;2023-06-24T01:15:24;19.70;99.90
25914;DHT22;13718;50.922;5.346;2023-06-24T01:18:03;19.60;99.90
25914;DHT22;13718;50.922;5.346;2023-06-24T01:32:11;19.60;99.90
25914;DHT22;13718;50.922;5.346;2023-06-24T01:34:48;19.50;99.90
25914;DHT22;13718;50.922;5.346;2023-06-24T01:37:28;19.40;99.90
25914;DHT22;13718;50.922;5.346;2023-06-24T01:42:39;19.40;99.90
25914;DHT22;13718;50.922;5.346;2023-06-24T01:45:12;19.30;99.90
25914;DHT22;13718;50.922;5.346;2023-06-24T01:47:40;19.30;99.90
25914;DHT22;13718;50.922;5.346;2023-06-24T01:50:11;19.30;99.90
25914;DHT22;13718;50.922;5.346;2023-06-24T01:52:38;19.30;99.90
25914;DHT22;13718;50.922;5.346;2023-06-24T01:55:07;19.20;99.90
25914;DHT22;13718;50.922;5.346;2023-06-24T01:57:34;19.20;99.90
25914;DHT22;13718;50.922;5.346;2023-06-24T02:00:02;19.20;99.90
25914;DHT22;13718;50.922;5.346;2023-06-24T02:02:32;19.10;99.90
25914;DHT22;13718;50.922;5.346;2023-06-24T02:04:58;19.10;99.90
25914;DHT22;13718;50.922;5.346;2023-06-24T02:07:25;19.10;99.90
25914;DHT22;13718;50.922;5.346;2023-06-24T02:09:51;19.20;99.90
25914;DHT22;13718;50.922;5.346;2023-06-24T02:12:18;19.10;99.90
25914;DHT22;13718;50.922;5.346;2023-06-24T02:14:45;19.00;99.90
25914;DHT22;13718;50.922;5.346;2023-06-24T02:17:13;19.10;99.90
25914;DHT22;13718;50.922;5.346;2023-06-24T02:19:39;19.20;99.90
25914;DHT22;13718;50.922;5.346;2023-06-24T02:22:05;19.10;99.90
25914;DHT22;13718;50.922;5.346;2023-06-24T02:24:36;19.00;99.90
25914;DHT22;13718;50.922;5.346;2023-06-24T02:27:03;18.80;99.90
25914;DHT22;13718;50.922;5.346;2023-06-24T02:29:30;18.80;99.90
25914;DHT22;13718;50.922;5.346;2023-06-24T02:31:57;18.70;99.90
25914;DHT22;13718;50.922;5.346;2023-06-24T02:34:24;18.60;99.90
25914;DHT22;13718;50.922;5.346;2023-06-24T02:36:49;18.60;99.90
25914;DHT22;13718;50.922;5.346;2023-06-24T02:39:15;18.50;99.90
25914;DHT22;13718;50.922;5.346;2023-06-24T02:41:41;18.50;99.90
25914;DHT22;13718;50.922;5.346;2023-06-24T02:44:07;18.50;99.90
25914;DHT22;13718;50.922;5.346;2023-06-24T02:46:34;18.50;99.90
25914;DHT22;13718;50.922;5.346;2023-06-24T02:49:02;18.50;99.90
25914;DHT22;13718;50.922;5.346;2023-06-24T02:51:28;18.40;99.90
25914;DHT22;13718;50.922;5.346;2023-06-24T02:53:54;18.40;99.90
25914;DHT22;13718;50.922;5.346;2023-06-24T02:56:20;18.50;99.90
25914;DHT22;13718;50.922;5.346;2023-06-24T02:58:47;18.40;99.90
25914;DHT22;13718;50.922;5.346;2023-06-24T03:01:14;18.30;99.90
25914;DHT22;13718;50.922;5.346;2023-06-24T03:03:41;18.30;99.90
25914;DHT22;13718;50.922;5.346;2023-06-24T03:06:07;18.30;99.90
25914;DHT22;13718;50.922;5.346;2023-06-24T03:08:38;18.20;99.90
25914;DHT22;13718;50.922;5.346;2023-06-24T03:11:04;18.20;99.90
25914;DHT22;13718;50.922;5.346;2023-06-24T03:13:30;18.20;99.90
25914;DHT22;13718;50.922;5.346;2023-06-24T03:15:55;18.20;99.90
25914;DHT22;13718;50.922;5.346;2023-06-24T03:18:21;18.20;99.90
25914;DHT22;13718;50.922;5.346;2023-06-24T03:20:46;18.10;99.90
25914;DHT22;13718;50.922;5.346;2023-06-24T03:23:12;18.10;99.90
25914;DHT22;13718;50.922;5.346;2023-06-24T03:25:38;18.20;99.90
25914;DHT22;13718;50.922;5.346;2023-06-24T03:28:03;18.10;99.90
25914;DHT22;13718;50.922;5.346;2023-06-24T03:30:32;18.10;99.90
25914;DHT22;13718;50.922;5.346;2023-06-24T03:32:58;18.00;99.90
25914;DHT22;13718;50.922;5.346;2023-06-24T03:35:24;18.00;99.90
25914;DHT22;13718;50.922;5.346;2023-06-24T03:37:49;18.00;99.90
25914;DHT22;13718;50.922;5.346;2023-06-24T03:40:15;18.00;99.90
25914;DHT22;13718;50.922;5.346;2023-06-24T03:42:41;18.00;99.90
25914;DHT22;13718;50.922;5.346;2023-06-24T03:45:07;17.90;99.90
25914;DHT22;13718;50.922;5.346;2023-06-24T03:47:32;18.00;99.90
25914;DHT22;13718;50.922;5.346;2023-06-24T03:49:58;18.00;99.90
25914;DHT22;13718;50.922;5.346;2023-06-24T03:52:25;17.90;99.90
25914;DHT22;13718;50.922;5.346;2023-06-24T03:54:51;17.90;99.90
25914;DHT22;13718;50.922;5.346;2023-06-24T03:57:16;18.00;99.90
25914;DHT22;13718;50.922;5.346;2023-06-24T03:59:42;18.00;99.90
25914;DHT22;13718;50.922;5.346;2023-06-24T04:02:07;18.00;99.90
25914;DHT22;13718;50.922;5.346;2023-06-24T04:04:36;18.10;99.90
25914;DHT22;13718;50.922;5.346;2023-06-24T04:07:02;18.20;99.90
25914;DHT22;13718;50.922;5.346;2023-06-24T04:09:29;18.20;99.90
25914;DHT22;13718;50.922;5.346;2023-06-24T04:11:55;18.10;99.90
25914;DHT22;13718;50.922;5.346;2023-06-24T04:14:20;18.20;99.90
25914;DHT22;13718;50.922;5.346;2023-06-24T04:16:46;18.20;99.90
25914;DHT22;13718;50.922;5.346;2023-06-24T04:19:11;18.10;99.90
25914;DHT22;13718;50.922;5.346;2023-06-24T04:21:37;18.10;99.90
25914;DHT22;13718;50.922;5.346;2023-06-24T04:24:03;18.20;99.90
25914;DHT22;13718;50.922;5.346;2023-06-24T04:26:30;18.30;99.90
25914;DHT22;13718;50.922;5.346;2023-06-24T04:28:55;18.40;99.90
25914;DHT22;13718;50.922;5.346;2023-06-24T04:31:21;18.40;99.90
25914;DHT22;13718;50.922;5.346;2023-06-24T04:33:46;18.50;99.90
25914;DHT22;13718;50.922;5.346;2023-06-24T04:36:12;18.50;99.90
25914;DHT22;13718;50.922;5.346;2023-06-24T04:38:37;18.60;99.90
25914;DHT22;13718;50.922;5.346;2023-06-24T04:41:03;18.60;99.90
25914;DHT22;13718;50.922;5.346;2023-06-24T04:43:29;18.60;99.90
25914;DHT22;13718;50.922;5.346;2023-06-24T04:45:54;18.70;99.90
25914;DHT22;13718;50.922;5.346;2023-06-24T04:48:24;18.90;99.90
25914;DHT22;13718;50.922;5.346;2023-06-24T04:50:50;18.90;99.90
25914;DHT22;13718;50.922;5.346;2023-06-24T04:53:15;18.90;99.90
25914;DHT22;13718;50.922;5.346;2023-06-24T04:55:41;18.90;99.90
25914;DHT22;13718;50.922;5.346;2023-06-24T04:58:06;18.90;99.90
25914;DHT22;13718;50.922;5.346;2023-06-24T05:00:32;19.00;99.90
25914;DHT22;13718;50.922;5.346;2023-06-24T05:02:58;19.10;99.90
25914;DHT22;13718;50.922;5.346;2023-06-24T05:05:23;19.20;99.90
25914;DHT22;13718;50.922;5.346;2023-06-24T05:07:49;19.10;99.90
25914;DHT22;13718;50.922;5.346;2023-06-24T05:10:14;19.10;99.90
25914;DHT22;13718;50.922;5.346;2023-06-24T05:12:41;19.20;99.90
25914;DHT22;13718;50.922;5.346;2023-06-24T05:15:07;19.30;99.90
25914;DHT22;13718;50.922;5.346;2023-06-24T05:17:32;19.40;99.90
25914;DHT22;13718;50.922;5.346;2023-06-24T05:19:58;19.50;99.90
25914;DHT22;13718;50.922;5.346;2023-06-24T05:22:24;19.50;99.90
25914;DHT22;13718;50.922;5.346;2023-06-24T05:24:49;19.70;99.90
25914;DHT22;13718;50.922;5.346;2023-06-24T05:27:15;19.70;99.90
25914;DHT22;13718;50.922;5.346;2023-06-24T05:29:41;19.90;99.90
25914;DHT22;13718;50.922;5.346;2023-06-24T05:32:07;20.40;99.90
25914;DHT22;13718;50.922;5.346;2023-06-24T05:34:32;21.70;99.90
25914;DHT22;13718;50.922;5.346;2023-06-24T05:36:59;23.70;99.90
25914;DHT22;13718;50.922;5.346;2023-06-24T05:39:24;25.60;99.90
25914;DHT22;13718;50.922;5.346;2023-06-24T05:41:50;27.20;99.90
25914;DHT22;13718;50.922;5.346;2023-06-24T05:44:16;28.60;99.50
25914;DHT22;13718;50.922;5.346;2023-06-24T05:46:46;29.60;96.10
25914;DHT22;13718;50.922;5.346;2023-06-24T05:49:12;30.40;92.80
25914;DHT22;13718;50.922;5.346;2023-06-24T05:51:38;31.00;90.20
25914;DHT22;13718;50.922;5.346;2023-06-24T05:54:03;31.90;88.10
25914;DHT22;13718;50.922;5.346;2023-06-24T05:56:29;32.60;81.80
25914;DHT22;13718;50.922;5.346;2023-06-24T05:58:55;33.00;80.70
25914;DHT22;13718;50.922;5.346;2023-06-24T06:01:20;33.50;77.80
25914;DHT22;13718;50.922;5.346;2023-06-24T06:03:46;34.20;75.30
25914;DHT22;13718;50.922;5.346;2023-06-24T06:06:12;34.80;72.90
25914;DHT22;13718;50.922;5.346;2023-06-24T06:08:37;35.50;69.70
25914;DHT22;13718;50.922;5.346;2023-06-24T06:11:03;36.00;66.90
25914;DHT22;13718;50.922;5.346;2023-06-24T06:13:29;36.50;65.00
25914;DHT22;13718;50.922;5.346;2023-06-24T06:15:55;37.00;63.00
25914;DHT22;13718;50.922;5.346;2023-06-24T06:18:21;37.40;60.80
25914;DHT22;13718;50.922;5.346;2023-06-24T06:20:47;37.60;60.60
25914;DHT22;13718;50.922;5.346;2023-06-24T06:23:12;37.90;59.00
25914;DHT22;13718;50.922;5.346;2023-06-24T06:25:38;38.30;57.80
25914;DHT22;13718;50.922;5.346;2023-06-24T06:28:04;38.60;55.60
25914;DHT22;13718;50.922;5.346;2023-06-24T06:30:30;38.80;54.90
25914;DHT22;13718;50.922;5.346;2023-06-24T06:32:55;39.10;53.70
25914;DHT22;13718;50.922;5.346;2023-06-24T06:35:21;39.20;53.10
25914;DHT22;13718;50.922;5.346;2023-06-24T06:37:46;39.40;51.70
25914;DHT22;13718;50.922;5.346;2023-06-24T06:40:18;39.40;51.10
25914;DHT22;13718;50.922;5.346;2023-06-24T06:42:43;39.40;50.70
25914;DHT22;13718;50.922;5.346;2023-06-24T06:45:09;39.40;49.10
25914;DHT22;13718;50.922;5.346;2023-06-24T06:47:35;39.40;49.60
25914;DHT22;13718;50.922;5.346;2023-06-24T06:50:00;39.40;49.00
25914;DHT22;13718;50.922;5.346;2023-06-24T06:52:26;39.40;48.30
25914;DHT22;13718;50.922;5.346;2023-06-24T06:54:53;39.70;48.50
25914;DHT22;13718;50.922;5.346;2023-06-24T06:57:19;39.80;48.10
25914;DHT22;13718;50.922;5.346;2023-06-24T06:59:44;39.90;47.90
25914;DHT22;13718;50.922;5.346;2023-06-24T07:02:10;39.90;47.30
25914;DHT22;13718;50.922;5.346;2023-06-24T07:04:35;40.00;47.10
25914;DHT22;13718;50.922;5.346;2023-06-24T07:07:01;39.80;46.60
25914;DHT22;13718;50.922;5.346;2023-06-24T07:09:27;39.70;46.80
25914;DHT22;13718;50.922;5.346;2023-06-24T07:11:53;39.70;47.50
25914;DHT22;13718;50.922;5.346;2023-06-24T07:14:18;39.60;47.00
25914;DHT22;13718;50.922;5.346;2023-06-24T07:16:44;39.70;47.10
25914;DHT22;13718;50.922;5.346;2023-06-24T07:19:10;40.00;47.00
25914;DHT22;13718;50.922;5.346;2023-06-24T07:21:35;40.10;46.10
25914;DHT22;13718;50.922;5.346;2023-06-24T07:24:01;40.30;46.10
25914;DHT22;13718;50.922;5.346;2023-06-24T07:26:27;40.60;46.10
25914;DHT22;13718;50.922;5.346;2023-06-24T07:28:55;41.00;45.30
25914;DHT22;13718;50.922;5.346;2023-06-24T07:31:21;41.50;44.60
25914;DHT22;13718;50.922;5.346;2023-06-24T07:33:46;41.90;44.70
25914;DHT22;13718;50.922;5.346;2023-06-24T07:36:12;42.00;44.50
25914;DHT22;13718;50.922;5.346;2023-06-24T07:38:39;42.00;43.40
25914;DHT22;13718;50.922;5.346;2023-06-24T07:41:04;42.00;42.80
25914;DHT22;13718;50.922;5.346;2023-06-24T07:43:30;42.20;42.30
25914;DHT22;13718;50.922;5.346;2023-06-24T07:45:55;42.30;41.50
25914;DHT22;13718;50.922;5.346;2023-06-24T07:48:21;42.20;41.40
25914;DHT22;13718;50.922;5.346;2023-06-24T07:50:47;42.00;42.10
25914;DHT22;13718;50.922;5.346;2023-06-24T07:53:12;41.70;41.80
25914;DHT22;13718;50.922;5.346;2023-06-24T07:55:38;41.70;41.70
25914;DHT22;13718;50.922;5.346;2023-06-24T07:58:04;41.40;41.80
25914;DHT22;13718;50.922;5.346;2023-06-24T08:00:30;41.20;41.50
25914;DHT22;13718;50.922;5.346;2023-06-24T08:02:57;41.10;41.10
25914;DHT22;13718;50.922;5.346;2023-06-24T08:05:23;40.80;40.40
25914;DHT22;13718;50.922;5.346;2023-06-24T08:07:50;41.10;41.40
25914;DHT22;13718;50.922;5.346;2023-06-24T08:10:15;41.10;40.60
25914;DHT22;13718;50.922;5.346;2023-06-24T08:12:41;41.20;41.40
25914;DHT22;13718;50.922;5.346;2023-06-24T08:15:07;41.10;41.00
25914;DHT22;13718;50.922;5.346;2023-06-24T08:17:33;41.30;41.30
25914;DHT22;13718;50.922;5.346;2023-06-24T08:19:58;41.60;40.20
25914;DHT22;13718;50.922;5.346;2023-06-24T08:22:24;41.90;40.80
25914;DHT22;13718;50.922;5.346;2023-06-24T08:24:50;42.00;40.30
25914;DHT22;13718;50.922;5.346;2023-06-24T08:27:15;42.00;38.60
25914;DHT22;13718;50.922;5.346;2023-06-24T08:29:41;41.90;37.10
25914;DHT22;13718;50.922;5.346;2023-06-24T08:32:06;41.90;37.40
25914;DHT22;13718;50.922;5.346;2023-06-24T08:34:33;42.00;37.40
25914;DHT22;13718;50.922;5.346;2023-06-24T08:36:58;41.90;38.00
25914;DHT22;13718;50.922;5.346;2023-06-24T08:39:24;41.80;38.40
25914;DHT22;13718;50.922;5.346;2023-06-24T08:41:49;42.20;38.70
25914;DHT22;13718;50.922;5.346;2023-06-24T08:44:15;42.20;38.00
25914;DHT22;13718;50.922;5.346;2023-06-24T08:46:41;42.40;38.30
25914;DHT22;13718;50.922;5.346;2023-06-24T08:51:46;42.60;37.10
25914;DHT22;13718;50.922;5.346;2023-06-24T08:54:14;42.50;37.10
25914;DHT22;13718;50.922;5.346;2023-06-24T08:56:41;42.00;37.00
25914;DHT22;13718;50.922;5.346;2023-06-24T08:59:08;42.30;37.10
25914;DHT22;13718;50.922;5.346;2023-06-24T09:01:34;42.40;36.80
25914;DHT22;13718;50.922;5.346;2023-06-24T09:04:00;42.10;36.80
25914;DHT22;13718;50.922;5.346;2023-06-24T09:06:25;42.20;37.80
25914;DHT22;13718;50.922;5.346;2023-06-24T09:08:54;42.70;37.10
25914;DHT22;13718;50.922;5.346;2023-06-24T09:11:27;42.90;36.90
25914;DHT22;13718;50.922;5.346;2023-06-24T09:13:59;43.10;35.60
25914;DHT22;13718;50.922;5.346;2023-06-24T09:16:26;43.30;35.20
25914;DHT22;13718;50.922;5.346;2023-06-24T09:18:52;42.60;35.30
25914;DHT22;13718;50.922;5.346;2023-06-24T09:21:25;42.40;35.50
25914;DHT22;13718;50.922;5.346;2023-06-24T09:23:54;42.50;36.00
25914;DHT22;13718;50.922;5.346;2023-06-24T09:26:27;42.80;35.70
25914;DHT22;13718;50.922;5.346;2023-06-24T09:28:57;42.80;35.10
25914;DHT22;13718;50.922;5.346;2023-06-24T09:31:23;42.80;35.00
25914;DHT22;13718;50.922;5.346;2023-06-24T09:33:49;43.00;35.30
25914;DHT22;13718;50.922;5.346;2023-06-24T09:36:15;42.80;36.20
25914;DHT22;13718;50.922;5.346;2023-06-24T09:38:42;42.70;36.50
25914;DHT22;13718;50.922;5.346;2023-06-24T09:41:10;42.60;35.80
25914;DHT22;13718;50.922;5.346;2023-06-24T09:43:37;42.40;35.10
25914;DHT22;13718;50.922;5.346;2023-06-24T09:46:05;42.40;35.60
25914;DHT22;13718;50.922;5.346;2023-06-24T09:48:32;42.60;35.70
25914;DHT22;13718;50.922;5.346;2023-06-24T09:51:03;41.80;37.10
25914;DHT22;13718;50.922;5.346;2023-06-24T09:53:34;40.00;39.80
25914;DHT22;13718;50.922;5.346;2023-06-24T09:56:00;37.80;38.80
25914;DHT22;13718;50.922;5.346;2023-06-24T09:58:30;36.10;41.70
25914;DHT22;13718;50.922;5.346;2023-06-24T10:00:58;34.50;42.40
25914;DHT22;13718;50.922;5.346;2023-06-24T10:03:26;33.20;43.90
25914;DHT22;13718;50.922;5.346;2023-06-24T10:05:52;32.50;44.80
25914;DHT22;13718;50.922;5.346;2023-06-24T10:08:17;31.90;47.10
25914;DHT22;13718;50.922;5.346;2023-06-24T10:10:44;31.40;47.70
25914;DHT22;13718;50.922;5.346;2023-06-24T10:13:09;31.00;47.60
25914;DHT22;13718;50.922;5.346;2023-06-24T10:15:35;30.70;48.50
25914;DHT22;13718;50.922;5.346;2023-06-24T10:18:02;30.30;47.50
25914;DHT22;13718;50.922;5.346;2023-06-24T10:20:28;30.20;49.00
25914;DHT22;13718;50.922;5.346;2023-06-24T10:22:54;30.10;50.60
25914;DHT22;13718;50.922;5.346;2023-06-24T10:25:20;30.00;51.90
25914;DHT22;13718;50.922;5.346;2023-06-24T10:27:53;29.80;51.10
25914;DHT22;13718;50.922;5.346;2023-06-24T10:30:19;29.70;51.50
25914;DHT22;13718;50.922;5.346;2023-06-24T10:32:51;29.60;51.40
25914;DHT22;13718;50.922;5.346;2023-06-24T10:35:26;29.50;52.50
25914;DHT22;13718;50.922;5.346;2023-06-24T10:37:59;29.40;53.00
25914;DHT22;13718;50.922;5.346;2023-06-24T10:43:01;29.30;52.70
25914;DHT22;13718;50.922;5.346;2023-06-24T10:45:27;29.40;53.50
25914;DHT22;13718;50.922;5.346;2023-06-24T10:47:52;29.40;52.30
25914;DHT22;13718;50.922;5.346;2023-06-24T10:50:20;29.50;52.20
25914;DHT22;13718;50.922;5.346;2023-06-24T10:52:48;29.40;52.80
25914;DHT22;13718;50.922;5.346;2023-06-24T10:55:18;29.30;50.70
25914;DHT22;13718;50.922;5.346;2023-06-24T10:57:44;29.30;50.50
25914;DHT22;13718;50.922;5.346;2023-06-24T11:00:11;29.30;50.90
25914;DHT22;13718;50.922;5.346;2023-06-24T11:02:37;29.20;50.70
25914;DHT22;13718;50.922;5.346;2023-06-24T11:05:04;29.20;50.20
25914;DHT22;13718;50.922;5.346;2023-06-24T11:07:35;29.10;52.20
25914;DHT22;13718;50.922;5.346;2023-06-24T11:10:06;29.30;53.30
25914;DHT22;13718;50.922;5.346;2023-06-24T11:12:38;29.20;52.90
25914;DHT22;13718;50.922;5.346;2023-06-24T11:15:04;29.00;51.90
25914;DHT22;13718;50.922;5.346;2023-06-24T11:17:30;28.80;51.40
25914;DHT22;13718;50.922;5.346;2023-06-24T11:19:56;28.70;52.30
25914;DHT22;13718;50.922;5.346;2023-06-24T11:22:23;28.60;52.80
25914;DHT22;13718;50.922;5.346;2023-06-24T11:24:49;28.60;53.20
25914;DHT22;13718;50.922;5.346;2023-06-24T11:27:15;28.70;54.20
25914;DHT22;13718;50.922;5.346;2023-06-24T11:29:40;28.60;54.00
25914;DHT22;13718;50.922;5.346;2023-06-24T11:32:09;28.60;53.40
25914;DHT22;13718;50.922;5.346;2023-06-24T11:34:36;28.60;53.80
25914;DHT22;13718;50.922;5.346;2023-06-24T11:37:11;28.60;52.70
25914;DHT22;13718;50.922;5.346;2023-06-24T11:39:37;28.60;52.90
25914;DHT22;13718;50.922;5.346;2023-06-24T11:42:06;28.50;53.30
25914;DHT22;13718;50.922;5.346;2023-06-24T11:44:38;28.50;53.80
25914;DHT22;13718;50.922;5.346;2023-06-24T11:47:07;28.50;54.70
25914;DHT22;13718;50.922;5.346;2023-06-24T11:49:48;28.40;54.60
25914;DHT22;13718;50.922;5.346;2023-06-24T11:52:14;28.50;54.60
25914;DHT22;13718;50.922;5.346;2023-06-24T11:54:41;28.50;54.40
25914;DHT22;13718;50.922;5.346;2023-06-24T11:57:08;28.60;55.30
25914;DHT22;13718;50.922;5.346;2023-06-24T11:59:33;28.60;54.80
25914;DHT22;13718;50.922;5.346;2023-06-24T12:01:59;28.60;54.00
25914;DHT22;13718;50.922;5.346;2023-06-24T12:04:29;28.60;53.20
25914;DHT22;13718;50.922;5.346;2023-06-24T12:06:55;28.60;53.10
25914;DHT22;13718;50.922;5.346;2023-06-24T12:09:21;28.60;54.10
25914;DHT22;13718;50.922;5.346;2023-06-24T12:11:46;28.60;54.10
25914;DHT22;13718;50.922;5.346;2023-06-24T12:14:12;28.60;54.30
25914;DHT22;13718;50.922;5.346;2023-06-24T12:16:41;28.50;53.40
25914;DHT22;13718;50.922;5.346;2023-06-24T12:19:09;28.40;54.60
25914;DHT22;13718;50.922;5.346;2023-06-24T12:21:35;28.20;54.00
25914;DHT22;13718;50.922;5.346;2023-06-24T12:24:01;28.20;55.20
25914;DHT22;13718;50.922;5.346;2023-06-24T12:26:27;28.20;54.90
25914;DHT22;13718;50.922;5.346;2023-06-24T12:28:56;28.30;54.60
25914;DHT22;13718;50.922;5.346;2023-06-24T12:31:25;28.40;55.10
25914;DHT22;13718;50.922;5.346;2023-06-24T12:33:51;28.50;55.20
25914;DHT22;13718;50.922;5.346;2023-06-24T12:36:18;28.40;55.00
25914;DHT22;13718;50.922;5.346;2023-06-24T12:38:43;28.40;54.90
25914;DHT22;13718;50.922;5.346;2023-06-24T12:41:09;28.30;56.00
25914;DHT22;13718;50.922;5.346;2023-06-24T12:43:35;28.40;55.50
25914;DHT22;13718;50.922;5.346;2023-06-24T12:46:00;28.50;55.60
25914;DHT22;13718;50.922;5.346;2023-06-24T12:48:26;28.40;53.70
25914;DHT22;13718;50.922;5.346;2023-06-24T12:50:54;28.30;54.10
25914;DHT22;13718;50.922;5.346;2023-06-24T12:53:21;28.30;54.40
25914;DHT22;13718;50.922;5.346;2023-06-24T12:55:47;28.30;55.20
25914;DHT22;13718;50.922;5.346;2023-06-24T12:58:14;28.40;54.70
25914;DHT22;13718;50.922;5.346;2023-06-24T13:00:40;28.40;54.50
25914;DHT22;13718;50.922;5.346;2023-06-24T13:03:06;28.30;55.60
25914;DHT22;13718;50.922;5.346;2023-06-24T13:05:32;28.30;55.70
25914;DHT22;13718;50.922;5.346;2023-06-24T13:07:57;28.40;57.30
25914;DHT22;13718;50.922;5.346;2023-06-24T13:10:23;28.50;56.00
25914;DHT22;13718;50.922;5.346;2023-06-24T13:12:49;28.60;55.40
25914;DHT22;13718;50.922;5.346;2023-06-24T13:15:14;28.70;55.80
25914;DHT22;13718;50.922;5.346;2023-06-24T13:17:40;28.70;54.90
25914;DHT22;13718;50.922;5.346;2023-06-24T13:20:06;28.70;54.10
25914;DHT22;13718;50.922;5.346;2023-06-24T13:22:32;28.70;55.60
25914;DHT22;13718;50.922;5.346;2023-06-24T13:24:57;28.80;55.80
25914;DHT22;13718;50.922;5.346;2023-06-24T13:27:23;28.60;55.70
25914;DHT22;13718;50.922;5.346;2023-06-24T13:29:48;28.50;55.60
25914;DHT22;13718;50.922;5.346;2023-06-24T13:32:14;28.50;55.90
25914;DHT22;13718;50.922;5.346;2023-06-24T13:34:40;28.70;55.60
25914;DHT22;13718;50.922;5.346;2023-06-24T13:37:05;28.70;55.80
25914;DHT22;13718;50.922;5.346;2023-06-24T13:39:31;28.80;56.20
25914;DHT22;13718;50.922;5.346;2023-06-24T13:41:57;28.70;55.30
25914;DHT22;13718;50.922;5.346;2023-06-24T13:44:23;28.60;54.50
25914;DHT22;13718;50.922;5.346;2023-06-24T13:46:49;28.50;55.30
25914;DHT22;13718;50.922;5.346;2023-06-24T13:49:15;28.50;55.60
25914;DHT22;13718;50.922;5.346;2023-06-24T13:51:41;28.50;56.70
25914;DHT22;13718;50.922;5.346;2023-06-24T13:54:07;28.50;56.20
25914;DHT22;13718;50.922;5.346;2023-06-24T13:56:33;28.60;55.10
25914;DHT22;13718;50.922;5.346;2023-06-24T13:58:58;28.70;53.50
25914;DHT22;13718;50.922;5.346;2023-06-24T14:01:24;28.60;54.70
25914;DHT22;13718;50.922;5.346;2023-06-24T14:03:50;28.60;54.40
25914;DHT22;13718;50.922;5.346;2023-06-24T14:06:18;28.70;54.50
25914;DHT22;13718;50.922;5.346;2023-06-24T14:08:44;28.60;54.80
25914;DHT22;13718;50.922;5.346;2023-06-24T14:11:10;28.50;53.50
25914;DHT22;13718;50.922;5.346;2023-06-24T14:13:36;28.30;53.00
25914;DHT22;13718;50.922;5.346;2023-06-24T14:16:03;28.30;53.10
25914;DHT22;13718;50.922;5.346;2023-06-24T14:18:29;28.50;53.70
25914;DHT22;13718;50.922;5.346;2023-06-24T14:20:57;28.40;52.00
25914;DHT22;13718;50.922;5.346;2023-06-24T14:23:23;28.60;52.70
25914;DHT22;13718;50.922;5.346;2023-06-24T14:25:51;28.90;53.30
25914;DHT22;13718;50.922;5.346;2023-06-24T14:28:16;29.00;51.30
25914;DHT22;13718;50.922;5.346;2023-06-24T14:30:42;29.20;50.00
25914;DHT22;13718;50.922;5.346;2023-06-24T14:33:08;29.00;52.40
25914;DHT22;13718;50.922;5.346;2023-06-24T14:35:33;28.80;53.10
25914;DHT22;13718;50.922;5.346;2023-06-24T14:37:59;28.50;52.70
25914;DHT22;13718;50.922;5.346;2023-06-24T14:40:24;28.30;52.30
25914;DHT22;13718;50.922;5.346;2023-06-24T14:42:50;28.20;52.20
25914;DHT22;13718;50.922;5.346;2023-06-24T14:45:15;28.20;51.70
25914;DHT22;13718;50.922;5.346;2023-06-24T14:47:41;28.10;52.10
25914;DHT22;13718;50.922;5.346;2023-06-24T14:50:07;28.10;51.60
25914;DHT22;13718;50.922;5.346;2023-06-24T14:52:32;28.10;50.40
25914;DHT22;13718;50.922;5.346;2023-06-24T14:54:58;28.10;50.30
25914;DHT22;13718;50.922;5.346;2023-06-24T14:57:23;28.10;50.00
25914;DHT22;13718;50.922;5.346;2023-06-24T14:59:51;28.10;50.20
25914;DHT22;13718;50.922;5.346;2023-06-24T15:02:16;28.10;49.80
25914;DHT22;13718;50.922;5.346;2023-06-24T15:04:43;28.20;49.30
25914;DHT22;13718;50.922;5.346;2023-06-24T15:07:08;28.20;48.40
25914;DHT22;13718;50.922;5.346;2023-06-24T15:09:34;28.20;46.70
25914;DHT22;13718;50.922;5.346;2023-06-24T15:12:00;28.20;47.80
25914;DHT22;13718;50.922;5.346;2023-06-24T15:14:25;28.20;48.60
25914;DHT22;13718;50.922;5.346;2023-06-24T15:16:51;28.20;49.80
25914;DHT22;13718;50.922;5.346;2023-06-24T15:19:19;28.30;48.10
25914;DHT22;13718;50.922;5.346;2023-06-24T15:21:45;28.30;49.80
25914;DHT22;13718;50.922;5.346;2023-06-24T15:24:10;28.30;49.80
25914;DHT22;13718;50.922;5.346;2023-06-24T15:26:36;28.30;49.60
25914;DHT22;13718;50.922;5.346;2023-06-24T15:29:02;28.30;48.90
25914;DHT22;13718;50.922;5.346;2023-06-24T15:31:27;28.20;49.60
25914;DHT22;13718;50.922;5.346;2023-06-24T15:33:53;28.20;50.60
25914;DHT22;13718;50.922;5.346;2023-06-24T15:36:19;28.10;50.40
25914;DHT22;13718;50.922;5.346;2023-06-24T15:38:47;28.10;51.30
25914;DHT22;13718;50.922;5.346;2023-06-24T15:41:13;28.20;50.40
25914;DHT22;13718;50.922;5.346;2023-06-24T15:43:39;28.20;50.60
25914;DHT22;13718;50.922;5.346;2023-06-24T15:46:05;28.30;51.10